sensor_id;sensor_type;location;lat;lon;timestamp;pressure;altitude;pressure_sealevel;temperature;humidity
73267;BME280;61495;53.400;7.608;2023-09-30T00:01:18;102219.06;;;12.47;100.00
73267;BME280;61495;53.400;7.608;2023-09-30T00:03:44;102212.41;;;12.43;100.00
73267;BME280;61495;53.400;7.608;2023-09-30T00:06:09;102210.75;;;12.42;100.00
73267;BME280;61495;53.400;7.608;2023-09-30T00:08:35;102214.06;;;12.44;100.00
73267;BME280;61495;53.400;7.608;2023-09-30T00:11:01;102223.81;;;12.45;100.00
73267;BME280;61495;53.400;7.608;2023-09-30T00:13:26;102224.44;;;12.47;100.00
73267;BME280;61495;53.400;7.608;2023-09-30T00:15:52;102232.72;;;12.46;100.00
73267;BME280;61495;53.400;7.608;2023-09-30T00:18:17;102229.81;;;12.47;100.00
73267;BME280;61495;53.400;7.608;2023-09-30T00:20:43;102231.88;;;12.45;100.00
73267;BME280;61495;53.400;7.608;2023-09-30T00:23:08;102235.56;;;12.44;100.00
73267;BME280;61495;53.400;7.608;2023-09-30T00:25:34;102240.31;;;12.42;100.00
73267;BME280;61495;53.400;7.608;2023-09-30T00:27:59;102243.00;;;12.42;100.00
73267;BME280;61495;53.400;7.608;2023-09-30T00:30:24;102246.31;;;12.44;100.00
73267;BME280;61495;53.400;7.608;2023-09-30T00:32:50;102248.84;;;12.46;100.00
73267;BME280;61495;53.400;7.608;2023-09-30T00:35:15;102249.69;;;12.46;100.00
73267;BME280;61495;53.400;7.608;2023-09-30T00:37:42;102245.31;;;12.45;100.00
73267;BME280;61495;53.400;7.608;2023-09-30T00:40:08;102237.63;;;12.42;100.00
73267;BME280;61495;53.400;7.608;2023-09-30T00:42:39;102233.81;;;12.37;100.00
73267;BME280;61495;53.400;7.608;2023-09-30T00:45:05;102236.97;;;12.40;100.00
73267;BME280;61495;53.400;7.608;2023-09-30T00:47:32;102242.81;;;12.44;100.00
73267;BME280;61495;53.400;7.608;2023-09-30T00:49:59;102253.09;;;12.40;100.00
73267;BME280;61495;53.400;7.608;2023-09-30T00:52:24;102254.13;;;12.39;100.00
73267;BME280;61495;53.400;7.608;2023-09-30T00:54:50;102254.94;;;12.40;100.00
73267;BME280;61495;53.400;7.608;2023-09-30T00:57:18;102238.19;;;12.38;100.00
73267;BME280;61495;53.400;7.608;2023-09-30T00:59:45;102225.59;;;12.38;100.00
73267;BME280;61495;53.400;7.608;2023-09-30T01:02:12;102221.22;;;12.37;100.00
73267;BME280;61495;53.400;7.608;2023-09-30T01:04:37;102223.91;;;12.37;100.00
73267;BME280;61495;53.400;7.608;2023-09-30T01:07:03;102232.97;;;12.36;100.00
73267;BME280;61495;53.400;7.608;2023-09-30T01:09:30;102232.34;;;12.34;100.00
73267;BME280;61495;53.400;7.608;2023-09-30T01:11:56;102229.44;;;12.36;100.00
73267;BME280;61495;53.400;7.608;2023-09-30T01:14:31;102228.63;;;12.35;100.00
73267;BME280;61495;53.400;7.608;2023-09-30T01:16:57;102221.94;;;12.31;100.00
73267;BME280;61495;53.400;7.608;2023-09-30T01:19:23;102233.34;;;12.33;100.00
73267;BME280;61495;53.400;7.608;2023-09-30T01:21:54;102229.66;;;12.34;100.00
73267;BME280;61495;53.400;7.608;2023-09-30T01:24:24;102240.78;;;12.31;100.00
73267;BME280;61495;53.400;7.608;2023-09-30T01:26:50;102239.09;;;12.30;100.00
73267;BME280;61495;53.400;7.608;2023-09-30T01:29:16;102243.44;;;12.31;100.00
73267;BME280;61495;53.400;7.608;2023-09-30T01:31:42;102244.47;;;12.30;100.00
73267;BME280;61495;53.400;7.608;2023-09-30T01:34:08;102253.56;;;12.29;100.00
73267;BME280;61495;53.400;7.608;2023-09-30T01:36:35;102265.47;;;12.26;100.00
73267;BME280;61495;53.400;7.608;2023-09-30T01:39:11;102260.94;;;12.27;100.00
73267;BME280;61495;53.400;7.608;2023-09-30T01:41:57;102243.53;;;12.23;100.00
73267;BME280;61495;53.400;7.608;2023-09-30T01:44:33;102253.94;;;12.26;100.00
73267;BME280;61495;53.400;7.608;2023-09-30T01:47:11;102262.00;;;12.26;100.00
73267;BME280;61495;53.400;7.608;2023-09-30T01:49:54;102260.47;;;12.23;100.00
73267;BME280;61495;53.400;7.608;2023-09-30T01:52:30;102269.22;;;12.25;100.00
73267;BME280;61495;53.400;7.608;2023-09-30T01:54:57;102269.84;;;12.27;100.00
73267;BME280;61495;53.400;7.608;2023-09-30T01:57:23;102273.38;;;12.28;100.00
73267;BME280;61495;53.400;7.608;2023-09-30T01:59:48;102280.44;;;12.29;100.00
73267;BME280;61495;53.400;7.608;2023-09-30T02:02:14;102275.44;;;12.26;100.00
73267;BME280;61495;53.400;7.608;2023-09-30T02:04:41;102291.56;;;12.26;100.00
73267;BME280;61495;53.400;7.608;2023-09-30T02:07:06;102277.06;;;12.27;100.00
73267;BME280;61495;53.400;7.608;2023-09-30T02:09:31;102278.75;;;12.28;100.00
73267;BME280;61495;53.400;7.608;2023-09-30T02:11:57;102276.06;;;12.28;100.00
73267;BME280;61495;53.400;7.608;2023-09-30T02:14:22;102269.69;;;12.29;100.00
73267;BME280;61495;53.400;7.608;2023-09-30T02:16:48;102267.00;;;12.29;100.00
73267;BME280;61495;53.400;7.608;2023-09-30T02:19:13;102274.03;;;12.30;100.00
73267;BME280;61495;53.400;7.608;2023-09-30T02:21:38;102259.31;;;12.26;100.00
73267;BME280;61495;53.400;7.608;2023-09-30T02:24:04;102269.22;;;12.25;100.00
73267;BME280;61495;53.400;7.608;2023-09-30T02:26:31;102265.47;;;12.26;100.00
73267;BME280;61495;53.400;7.608;2023-09-30T02:28:58;102265.69;;;12.25;100.00
73267;BME280;61495;53.400;7.608;2023-09-30T02:31:23;102265.84;;;12.23;100.00
73267;BME280;61495;53.400;7.608;2023-09-30T02:33:49;102275.78;;;12.23;100.00
73267;BME280;61495;53.400;7.608;2023-09-30T02:36:14;102291.91;;;12.23;100.00
73267;BME280;61495;53.400;7.608;2023-09-30T02:38:41;102289.41;;;12.21;100.00
73267;BME280;61495;53.400;7.608;2023-09-30T02:41:07;102280.69;;;12.19;100.00
73267;BME280;61495;53.400;7.608;2023-09-30T02:43:33;102272.78;;;12.18;100.00
73267;BME280;61495;53.400;7.608;2023-09-30T02:45:58;102272.31;;;12.14;100.00
73267;BME280;61495;53.400;7.608;2023-09-30T02:48:24;102271.16;;;12.17;100.00
73267;BME280;61495;53.400;7.608;2023-09-30T02:50:49;102269.47;;;12.16;100.00
73267;BME280;61495;53.400;7.608;2023-09-30T02:53:14;102273.16;;;12.15;100.00
73267;BME280;61495;53.400;7.608;2023-09-30T02:55:41;102273.50;;;12.12;100.00
73267;BME280;61495;53.400;7.608;2023-09-30T02:58:07;102284.47;;;12.10;100.00
73267;BME280;61495;53.400;7.608;2023-09-30T03:00:35;102286.31;;;12.10;100.00
73267;BME280;61495;53.400;7.608;2023-09-30T03:03:01;102282.97;;;12.08;100.00
73267;BME280;61495;53.400;7.608;2023-09-30T03:05:27;102275.91;;;12.07;100.00
73267;BME280;61495;53.400;7.608;2023-09-30T03:07:53;102299.47;;;12.05;100.00
73267;BME280;61495;53.400;7.608;2023-09-30T03:10:20;102290.56;;;12.04;100.00
73267;BME280;61495;53.400;7.608;2023-09-30T03:12:47;102283.69;;;12.02;100.00
73267;BME280;61495;53.400;7.608;2023-09-30T03:15:12;102283.50;;;12.03;100.00
73267;BME280;61495;53.400;7.608;2023-09-30T03:17:38;102272.59;;;12.05;100.00
73267;BME280;61495;53.400;7.608;2023-09-30T03:20:04;102276.94;;;12.06;100.00
73267;BME280;61495;53.400;7.608;2023-09-30T03:22:41;102272.59;;;12.05;100.00
73267;BME280;61495;53.400;7.608;2023-09-30T03:25:16;102277.66;;;12.00;100.00
73267;BME280;61495;53.400;7.608;2023-09-30T03:27:43;102279.34;;;12.01;100.00
73267;BME280;61495;53.400;7.608;2023-09-30T03:30:09;102280.34;;;12.00;100.00
73267;BME280;61495;53.400;7.608;2023-09-30T03:32:38;102285.53;;;12.01;100.00
73267;BME280;61495;53.400;7.608;2023-09-30T03:35:10;102288.03;;;12.03;100.00
73267;BME280;61495;53.400;7.608;2023-09-30T03:37:38;102301.66;;;12.01;100.00
73267;BME280;61495;53.400;7.608;2023-09-30T03:40:04;102291.91;;;12.00;100.00
73267;BME280;61495;53.400;7.608;2023-09-30T03:42:38;102290.56;;;12.04;100.00
73267;BME280;61495;53.400;7.608;2023-09-30T03:45:05;102288.22;;;12.01;100.00
73267;BME280;61495;53.400;7.608;2023-09-30T03:47:34;102296.09;;;12.03;100.00
73267;BME280;61495;53.400;7.608;2023-09-30T03:49:59;102288.22;;;12.01;100.00
73267;BME280;61495;53.400;7.608;2023-09-30T03:52:24;102301.81;;;12.00;100.00
73267;BME280;61495;53.400;7.608;2023-09-30T03:54:51;102300.19;;;11.99;100.00
73267;BME280;61495;53.400;7.608;2023-09-30T03:57:18;102289.44;;;11.99;100.00
73267;BME280;61495;53.400;7.608;2023-09-30T03:59:44;102279.03;;;11.96;100.00
73267;BME280;61495;53.400;7.608;2023-09-30T04:02:11;102289.78;;;11.96;100.00
73267;BME280;61495;53.400;7.608;2023-09-30T04:04:36;102282.75;;;11.95;100.00
73267;BME280;61495;53.400;7.608;2023-09-30T04:07:02;102288.09;;;11.95;100.00
73267;BME280;61495;53.400;7.608;2023-09-30T04:09:30;102289.78;;;11.96;100.00
73267;BME280;61495;53.400;7.608;2023-09-30T04:11:57;102293.47;;;11.95;100.00
73267;BME280;61495;53.400;7.608;2023-09-30T04:14:23;102291.44;;;11.97;100.00
73267;BME280;61495;53.400;7.608;2023-09-30T04:16:48;102302.38;;;11.95;100.00
73267;BME280;61495;53.400;7.608;2023-09-30T04:19:13;102287.28;;;11.94;100.00
73267;BME280;61495;53.400;7.608;2023-09-30T04:21:39;102289.78;;;11.96;100.00
73267;BME280;61495;53.400;7.608;2023-09-30T04:24:05;102302.53;;;11.94;100.00
73267;BME280;61495;53.400;7.608;2023-09-30T04:26:32;102296.53;;;11.92;100.00
73267;BME280;61495;53.400;7.608;2023-09-30T04:28:58;102302.53;;;11.94;100.00
73267;BME280;61495;53.400;7.608;2023-09-30T04:31:23;102309.13;;;11.91;100.00
73267;BME280;61495;53.400;7.608;2023-09-30T04:33:49;102302.91;;;11.91;100.00
73267;BME280;61495;53.400;7.608;2023-09-30T04:36:16;102304.94;;;11.89;100.00
73267;BME280;61495;53.400;7.608;2023-09-30T04:38:42;102297.91;;;11.88;100.00
73267;BME280;61495;53.400;7.608;2023-09-30T04:41:08;102299.94;;;11.86;100.00
73267;BME280;61495;53.400;7.608;2023-09-30T04:43:34;102302.13;;;11.82;100.00
73267;BME280;61495;53.400;7.608;2023-09-30T04:46:00;102306.97;;;11.87;100.00
73267;BME280;61495;53.400;7.608;2023-09-30T04:48:26;102316.41;;;11.83;100.00
73267;BME280;61495;53.400;7.608;2023-09-30T04:50:52;102315.56;;;11.82;100.00
73267;BME280;61495;53.400;7.608;2023-09-30T04:53:18;102321.13;;;11.81;100.00
73267;BME280;61495;53.400;7.608;2023-09-30T04:55:44;102309.38;;;11.82;100.00
73267;BME280;61495;53.400;7.608;2023-09-30T04:58:10;102317.44;;;11.82;100.00
73267;BME280;61495;53.400;7.608;2023-09-30T05:00:36;102311.38;;;11.80;100.00
73267;BME280;61495;53.400;7.608;2023-09-30T05:03:02;102309.72;;;11.79;100.00
73267;BME280;61495;53.400;7.608;2023-09-30T05:05:27;102319.78;;;11.77;100.00
73267;BME280;61495;53.400;7.608;2023-09-30T05:07:54;102322.84;;;11.74;100.00
73267;BME280;61495;53.400;7.608;2023-09-30T05:10:19;102322.66;;;11.75;100.00
73267;BME280;61495;53.400;7.608;2023-09-30T05:12:45;102333.56;;;11.74;100.00
73267;BME280;61495;53.400;7.608;2023-09-30T05:15:12;102329.25;;;11.73;100.00
73267;BME280;61495;53.400;7.608;2023-09-30T05:17:38;102329.59;;;11.69;100.00
73267;BME280;61495;53.400;7.608;2023-09-30T05:20:04;102335.78;;;11.70;100.00
73267;BME280;61495;53.400;7.608;2023-09-30T05:22:33;102333.09;;;11.70;100.00
73267;BME280;61495;53.400;7.608;2023-09-30T05:24:58;102345.69;;;11.69;100.00
73267;BME280;61495;53.400;7.608;2023-09-30T05:27:24;102344.34;;;11.65;100.00
73267;BME280;61495;53.400;7.608;2023-09-30T05:29:49;102342.66;;;11.64;100.00
73267;BME280;61495;53.400;7.608;2023-09-30T05:32:14;102350.72;;;11.64;100.00
73267;BME280;61495;53.400;7.608;2023-09-30T05:34:40;102344.03;;;11.60;100.00
73267;BME280;61495;53.400;7.608;2023-09-30T05:37:05;102350.91;;;11.63;100.00
73267;BME280;61495;53.400;7.608;2023-09-30T05:39:31;102346.03;;;11.58;100.00
73267;BME280;61495;53.400;7.608;2023-09-30T05:41:57;102354.59;;;11.62;100.00
73267;BME280;61495;53.400;7.608;2023-09-30T05:44:23;102360.16;;;11.60;100.00
73267;BME280;61495;53.400;7.608;2023-09-30T05:46:48;102361.81;;;11.61;100.00
73267;BME280;61495;53.400;7.608;2023-09-30T05:49:13;102358.66;;;11.58;100.00
73267;BME280;61495;53.400;7.608;2023-09-30T05:51:42;102349.75;;;11.57;100.00
73267;BME280;61495;53.400;7.608;2023-09-30T05:54:08;102350.59;;;11.58;100.00
73267;BME280;61495;53.400;7.608;2023-09-30T05:56:38;102357.81;;;11.57;100.00
73267;BME280;61495;53.400;7.608;2023-09-30T05:59:04;102356.78;;;11.58;100.00
73267;BME280;61495;53.400;7.608;2023-09-30T06:01:31;102361.16;;;11.59;100.00
73267;BME280;61495;53.400;7.608;2023-09-30T06:04:00;102358.81;;;11.56;100.00
73267;BME280;61495;53.400;7.608;2023-09-30T06:06:26;102362.84;;;11.60;100.00
73267;BME280;61495;53.400;7.608;2023-09-30T06:08:55;102370.88;;;11.60;100.00
73267;BME280;61495;53.400;7.608;2023-09-30T06:11:22;102376.72;;;11.64;100.00
73267;BME280;61495;53.400;7.608;2023-09-30T06:13:55;102383.59;;;11.66;100.00
73267;BME280;61495;53.400;7.608;2023-09-30T06:16:21;102385.63;;;11.64;100.00
73267;BME280;61495;53.400;7.608;2023-09-30T06:18:48;102386.28;;;11.66;100.00
73267;BME280;61495;53.400;7.608;2023-09-30T06:21:14;102381.25;;;11.72;100.00
73267;BME280;61495;53.400;7.608;2023-09-30T06:23:42;102392.66;;;11.74;100.00
73267;BME280;61495;53.400;7.608;2023-09-30T06:26:08;102381.75;;;11.75;100.00
73267;BME280;61495;53.400;7.608;2023-09-30T06:28:35;102383.25;;;11.78;100.00
73267;BME280;61495;53.400;7.608;2023-09-30T06:31:06;102386.56;;;11.80;100.00
73267;BME280;61495;53.400;7.608;2023-09-30T06:33:32;102396.44;;;11.87;100.00
73267;BME280;61495;53.400;7.608;2023-09-30T06:35:58;102394.22;;;11.91;100.00
73267;BME280;61495;53.400;7.608;2023-09-30T06:38:27;102395.38;;;11.96;100.00
73267;BME280;61495;53.400;7.608;2023-09-30T06:40:52;102386.13;;;11.99;100.00
73267;BME280;61495;53.400;7.608;2023-09-30T06:43:19;102399.50;;;12.07;100.00
73267;BME280;61495;53.400;7.608;2023-09-30T06:45:45;102403.31;;;12.12;100.00
73267;BME280;61495;53.400;7.608;2023-09-30T06:48:12;102412.88;;;12.15;100.00
73267;BME280;61495;53.400;7.608;2023-09-30T06:50:45;102405.94;;;12.20;100.00
73267;BME280;61495;53.400;7.608;2023-09-30T06:53:11;102417.19;;;12.24;100.00
73267;BME280;61495;53.400;7.608;2023-09-30T06:55:39;102417.50;;;12.29;100.00
73267;BME280;61495;53.400;7.608;2023-09-30T06:58:05;102419.81;;;12.32;100.00
73267;BME280;61495;53.400;7.608;2023-09-30T07:00:33;102424.00;;;12.35;100.00
73267;BME280;61495;53.400;7.608;2023-09-30T07:03:00;102426.50;;;12.36;100.00
73267;BME280;61495;53.400;7.608;2023-09-30T07:05:26;102426.78;;;12.41;100.00
73267;BME280;61495;53.400;7.608;2023-09-30T07:07:51;102425.41;;;12.45;100.00
73267;BME280;61495;53.400;7.608;2023-09-30T07:10:16;102420.31;;;12.50;100.00
73267;BME280;61495;53.400;7.608;2023-09-30T07:12:42;102429.72;;;12.54;100.00
73267;BME280;61495;53.400;7.608;2023-09-30T07:15:08;102428.34;;;12.58;100.00
73267;BME280;61495;53.400;7.608;2023-09-30T07:17:34;102430.19;;;12.58;100.00
73267;BME280;61495;53.400;7.608;2023-09-30T07:19:59;102440.22;;;12.64;100.00
73267;BME280;61495;53.400;7.608;2023-09-30T07:22:25;102437.81;;;12.69;100.00
73267;BME280;61495;53.400;7.608;2023-09-30T07:24:50;102437.66;;;12.70;100.00
73267;BME280;61495;53.400;7.608;2023-09-30T07:27:16;102459.47;;;12.75;100.00
73267;BME280;61495;53.400;7.608;2023-09-30T07:29:41;102450.81;;;12.80;100.00
73267;BME280;61495;53.400;7.608;2023-09-30T07:32:07;102458.38;;;12.85;100.00
73267;BME280;61495;53.400;7.608;2023-09-30T07:34:34;102458.00;;;12.88;100.00
73267;BME280;61495;53.400;7.608;2023-09-30T07:36:59;102452.91;;;12.93;100.00
73267;BME280;61495;53.400;7.608;2023-09-30T07:39:24;102446.16;;;12.97;100.00
73267;BME280;61495;53.400;7.608;2023-09-30T07:41:50;102445.78;;;13.00;100.00
73267;BME280;61495;53.400;7.608;2023-09-30T07:44:15;102450.59;;;13.04;100.00
73267;BME280;61495;53.400;7.608;2023-09-30T07:46:40;102450.94;;;13.09;100.00
73267;BME280;61495;53.400;7.608;2023-09-30T07:49:10;102454.28;;;13.11;100.00
73267;BME280;61495;53.400;7.608;2023-09-30T07:51:35;102458.09;;;13.17;100.00
73267;BME280;61495;53.400;7.608;2023-09-30T07:54:01;102460.22;;;13.21;100.00
73267;BME280;61495;53.400;7.608;2023-09-30T07:56:26;102460.31;;;13.28;100.00
73267;BME280;61495;53.400;7.608;2023-09-30T07:58:51;102464.13;;;13.33;100.00
73267;BME280;61495;53.400;7.608;2023-09-30T08:01:17;102459.03;;;13.39;100.00
73267;BME280;61495;53.400;7.608;2023-09-30T08:03:43;102455.13;;;13.41;100.00
73267;BME280;61495;53.400;7.608;2023-09-30T08:06:08;102451.03;;;13.45;100.00
73267;BME280;61495;53.400;7.608;2023-09-30T08:08:34;102465.25;;;13.54;100.00
73267;BME280;61495;53.400;7.608;2023-09-30T08:11:00;102457.91;;;13.62;100.00
73267;BME280;61495;53.400;7.608;2023-09-30T08:13:26;102469.59;;;13.69;100.00
73267;BME280;61495;53.400;7.608;2023-09-30T08:15:51;102474.22;;;13.75;100.00
73267;BME280;61495;53.400;7.608;2023-09-30T08:18:18;102467.34;;;13.87;100.00
73267;BME280;61495;53.400;7.608;2023-09-30T08:20:44;102466.22;;;13.97;100.00
73267;BME280;61495;53.400;7.608;2023-09-30T08:23:10;102475.09;;;14.12;100.00
73267;BME280;61495;53.400;7.608;2023-09-30T08:25:37;102478.97;;;14.24;100.00
73267;BME280;61495;53.400;7.608;2023-09-30T08:28:03;102471.88;;;14.37;100.00
73267;BME280;61495;53.400;7.608;2023-09-30T08:30:29;102481.81;;;14.52;100.00
73267;BME280;61495;53.400;7.608;2023-09-30T08:32:54;102484.81;;;14.63;100.00
73267;BME280;61495;53.400;7.608;2023-09-30T08:35:19;102488.28;;;14.78;100.00
73267;BME280;61495;53.400;7.608;2023-09-30T08:37:45;102481.38;;;14.97;100.00
73267;BME280;61495;53.400;7.608;2023-09-30T08:40:11;102473.19;;;15.12;100.00
73267;BME280;61495;53.400;7.608;2023-09-30T08:42:38;102470.78;;;15.23;100.00
73267;BME280;61495;53.400;7.608;2023-09-30T08:45:04;102467.53;;;15.34;100.00
73267;BME280;61495;53.400;7.608;2023-09-30T08:47:33;102475.16;;;15.52;100.00
73267;BME280;61495;53.400;7.608;2023-09-30T08:50:00;102473.56;;;15.64;100.00
73267;BME280;61495;53.400;7.608;2023-09-30T08:52:32;102481.97;;;15.82;100.00
73267;BME280;61495;53.400;7.608;2023-09-30T08:54:59;102476.59;;;15.95;100.00
73267;BME280;61495;53.400;7.608;2023-09-30T08:57:24;102483.31;;;16.06;100.00
73267;BME280;61495;53.400;7.608;2023-09-30T08:59:53;102476.28;;;16.18;100.00
73267;BME280;61495;53.400;7.608;2023-09-30T09:02:19;102478.56;;;16.28;100.00
73267;BME280;61495;53.400;7.608;2023-09-30T09:04:47;102472.19;;;16.42;100.00
73267;BME280;61495;53.400;7.608;2023-09-30T09:07:14;102481.78;;;16.51;99.64
73267;BME280;61495;53.400;7.608;2023-09-30T09:09:40;102489.06;;;16.57;99.90
73267;BME280;61495;53.400;7.608;2023-09-30T09:12:06;102495.97;;;16.66;99.85
73267;BME280;61495;53.400;7.608;2023-09-30T09:14:39;102494.31;;;16.78;99.69
73267;BME280;61495;53.400;7.608;2023-09-30T09:17:06;102496.84;;;16.86;98.69
73267;BME280;61495;53.400;7.608;2023-09-30T09:19:32;102500.19;;;17.01;99.06
73267;BME280;61495;53.400;7.608;2023-09-30T09:21:59;102495.78;;;17.07;96.63
73267;BME280;61495;53.400;7.608;2023-09-30T09:27:07;102498.28;;;17.21;95.96
73267;BME280;61495;53.400;7.608;2023-09-30T09:29:34;102501.19;;;17.33;96.64
73267;BME280;61495;53.400;7.608;2023-09-30T09:32:13;102488.00;;;17.50;97.53
73267;BME280;61495;53.400;7.608;2023-09-30T09:34:40;102491.16;;;17.60;95.14
73267;BME280;61495;53.400;7.608;2023-09-30T09:37:15;102486.53;;;17.67;95.94
73267;BME280;61495;53.400;7.608;2023-09-30T09:39:58;102492.78;;;17.74;93.88
73267;BME280;61495;53.400;7.608;2023-09-30T09:42:31;102488.75;;;17.90;96.05
73267;BME280;61495;53.400;7.608;2023-09-30T09:45:06;102497.88;;;18.08;94.37
73267;BME280;61495;53.400;7.608;2023-09-30T09:47:32;102497.22;;;18.13;92.71
73267;BME280;61495;53.400;7.608;2023-09-30T09:49:58;102497.78;;;18.21;92.10
73267;BME280;61495;53.400;7.608;2023-09-30T09:52:25;102512.34;;;18.33;92.13
73267;BME280;61495;53.400;7.608;2023-09-30T09:54:52;102507.91;;;18.46;91.31
73267;BME280;61495;53.400;7.608;2023-09-30T09:57:19;102511.00;;;18.56;90.39
73267;BME280;61495;53.400;7.608;2023-09-30T09:59:45;102520.09;;;18.68;90.53
73267;BME280;61495;53.400;7.608;2023-09-30T10:02:15;102507.16;;;18.70;88.87
73267;BME280;61495;53.400;7.608;2023-09-30T10:04:42;102490.63;;;18.71;87.99
73267;BME280;61495;53.400;7.608;2023-09-30T10:07:11;102499.97;;;18.82;88.23
73267;BME280;61495;53.400;7.608;2023-09-30T10:09:41;102490.28;;;18.86;86.03
73267;BME280;61495;53.400;7.608;2023-09-30T10:12:10;102488.97;;;18.95;87.43
73267;BME280;61495;53.400;7.608;2023-09-30T10:14:35;102499.28;;;19.11;87.64
73267;BME280;61495;53.400;7.608;2023-09-30T10:17:01;102510.91;;;19.18;87.16
73267;BME280;61495;53.400;7.608;2023-09-30T10:19:28;102519.25;;;19.23;85.02
73267;BME280;61495;53.400;7.608;2023-09-30T10:24:43;102527.56;;;19.28;84.84
73267;BME280;61495;53.400;7.608;2023-09-30T10:37:44;102520.63;;;19.75;84.21
73267;BME280;61495;53.400;7.608;2023-09-30T10:40:28;102515.63;;;19.72;83.47
73267;BME280;61495;53.400;7.608;2023-09-30T10:42:54;102519.19;;;19.73;81.86
73267;BME280;61495;53.400;7.608;2023-09-30T10:45:43;102521.25;;;19.77;81.78
73267;BME280;61495;53.400;7.608;2023-09-30T10:50:52;102522.97;;;19.90;81.68
73267;BME280;61495;53.400;7.608;2023-09-30T10:53:18;102526.38;;;20.04;81.94
73267;BME280;61495;53.400;7.608;2023-09-30T10:55:46;102521.31;;;20.07;82.49
73267;BME280;61495;53.400;7.608;2023-09-30T10:58:15;102517.06;;;20.11;82.50
73267;BME280;61495;53.400;7.608;2023-09-30T11:00:52;102527.41;;;20.21;81.95
73267;BME280;61495;53.400;7.608;2023-09-30T11:03:19;102523.00;;;20.20;79.89
73267;BME280;61495;53.400;7.608;2023-09-30T11:05:50;102533.69;;;20.21;79.17
73267;BME280;61495;53.400;7.608;2023-09-30T11:08:21;102532.00;;;20.20;79.38
73267;BME280;61495;53.400;7.608;2023-09-30T11:10:50;102536.16;;;20.23;76.83
73267;BME280;61495;53.400;7.608;2023-09-30T11:13:19;102531.34;;;20.25;78.77
73267;BME280;61495;53.400;7.608;2023-09-30T11:15:46;102530.47;;;20.31;79.06
73267;BME280;61495;53.400;7.608;2023-09-30T11:18:18;102519.69;;;20.36;79.05
73267;BME280;61495;53.400;7.608;2023-09-30T11:20:44;102525.56;;;20.51;79.72
73267;BME280;61495;53.400;7.608;2023-09-30T11:23:11;102531.88;;;20.63;80.45
73267;BME280;61495;53.400;7.608;2023-09-30T11:25:38;102532.72;;;20.64;79.01
73267;BME280;61495;53.400;7.608;2023-09-30T11:30:57;102526.13;;;20.83;78.98
73267;BME280;61495;53.400;7.608;2023-09-30T11:33:22;102526.97;;;20.83;77.49
73267;BME280;61495;53.400;7.608;2023-09-30T11:36:01;102528.38;;;20.86;77.60
73267;BME280;61495;53.400;7.608;2023-09-30T11:38:31;102524.34;;;20.88;77.16
73267;BME280;61495;53.400;7.608;2023-09-30T11:43:28;102512.16;;;20.91;77.50
73267;BME280;61495;53.400;7.608;2023-09-30T11:46:12;102513.81;;;20.92;77.70
73267;BME280;61495;53.400;7.608;2023-09-30T11:48:56;102512.78;;;21.04;77.42
73267;BME280;61495;53.400;7.608;2023-09-30T11:51:21;102518.91;;;21.00;76.33
73267;BME280;61495;53.400;7.608;2023-09-30T11:53:49;102522.84;;;21.04;75.77
73267;BME280;61495;53.400;7.608;2023-09-30T11:56:25;102517.91;;;21.13;76.21
73267;BME280;61495;53.400;7.608;2023-09-30T11:58:54;102516.94;;;21.07;75.37
73267;BME280;61495;53.400;7.608;2023-09-30T12:01:20;102514.88;;;21.02;75.67
73267;BME280;61495;53.400;7.608;2023-09-30T12:03:47;102516.50;;;21.10;75.81
73267;BME280;61495;53.400;7.608;2023-09-30T12:06:13;102509.81;;;21.06;73.89
73267;BME280;61495;53.400;7.608;2023-09-30T12:08:39;102508.63;;;21.02;75.13
73267;BME280;61495;53.400;7.608;2023-09-30T12:11:05;102504.13;;;20.96;74.02
73267;BME280;61495;53.400;7.608;2023-09-30T12:13:31;102507.44;;;20.98;75.47
73267;BME280;61495;53.400;7.608;2023-09-30T12:15:56;102506.97;;;21.01;75.80
73267;BME280;61495;53.400;7.608;2023-09-30T12:18:22;102494.38;;;21.00;74.63
73267;BME280;61495;53.400;7.608;2023-09-30T12:20:52;102499.84;;;21.00;74.90
73267;BME280;61495;53.400;7.608;2023-09-30T12:23:18;102500.31;;;20.97;75.03
73267;BME280;61495;53.400;7.608;2023-09-30T12:25:45;102499.13;;;20.93;74.54
73267;BME280;61495;53.400;7.608;2023-09-30T12:28:10;102504.13;;;20.96;75.76
73267;BME280;61495;53.400;7.608;2023-09-30T12:30:36;102506.00;;;20.84;73.73
73267;BME280;61495;53.400;7.608;2023-09-30T12:33:01;102510.25;;;20.80;73.62
73267;BME280;61495;53.400;7.608;2023-09-30T12:35:27;102513.78;;;20.69;73.89
73267;BME280;61495;53.400;7.608;2023-09-30T12:37:52;102499.78;;;20.65;74.78
73267;BME280;61495;53.400;7.608;2023-09-30T12:40:18;102503.69;;;20.58;73.87
73267;BME280;61495;53.400;7.608;2023-09-30T12:42:44;102502.00;;;20.57;72.90
73267;BME280;61495;53.400;7.608;2023-09-30T12:45:10;102505.19;;;20.54;74.43
73267;BME280;61495;53.400;7.608;2023-09-30T12:47:36;102495.91;;;20.43;74.53
73267;BME280;61495;53.400;7.608;2023-09-30T12:50:01;102489.50;;;20.37;74.46
73267;BME280;61495;53.400;7.608;2023-09-30T12:52:28;102484.50;;;20.34;74.88
73267;BME280;61495;53.400;7.608;2023-09-30T12:54:55;102487.13;;;20.29;74.68
73267;BME280;61495;53.400;7.608;2023-09-30T12:57:20;102488.91;;;20.17;74.20
73267;BME280;61495;53.400;7.608;2023-09-30T12:59:46;102488.78;;;20.12;74.11
73267;BME280;61495;53.400;7.608;2023-09-30T13:02:12;102479.59;;;19.95;74.82
73267;BME280;61495;53.400;7.608;2023-09-30T13:04:38;102484.94;;;20.02;75.85
73267;BME280;61495;53.400;7.608;2023-09-30T13:07:11;102491.91;;;19.98;75.51